sensor_id;sensor_type;location;lat;lon;timestamp;pressure;altitude;pressure_sealevel;temperature
72405;BMP280;60395;52.020;113.548;2023-02-08T00:00:43;93379.72;;;-15.34
72405;BMP280;60395;52.020;113.548;2023-02-08T00:03:47;93389.50;;;-15.17
72405;BMP280;60395;52.020;113.548;2023-02-08T00:06:50;93382.72;;;-15.09
72405;BMP280;60395;52.020;113.548;2023-02-08T00:09:54;93385.91;;;-14.95
72405;BMP280;60395;52.020;113.548;2023-02-08T00:12:57;93384.34;;;-14.85
72405;BMP280;60395;52.020;113.548;2023-02-08T00:16:00;93386.78;;;-14.80
72405;BMP280;60395;52.020;113.548;2023-02-08T00:19:04;93387.38;;;-14.87
72405;BMP280;60395;52.020;113.548;2023-02-08T00:22:07;93390.19;;;-14.90
72405;BMP280;60395;52.020;113.548;2023-02-08T00:25:10;93396.09;;;-15.01
72405;BMP280;60395;52.020;113.548;2023-02-08T00:28:15;93394.97;;;-15.13
72405;BMP280;60395;52.020;113.548;2023-02-08T00:31:18;93401.16;;;-15.14
72405;BMP280;60395;52.020;113.548;2023-02-08T00:34:22;93407.56;;;-15.13
72405;BMP280;60395;52.020;113.548;2023-02-08T00:37:25;93402.38;;;-15.21
72405;BMP280;60395;52.020;113.548;2023-02-08T00:40:28;93408.88;;;-15.12
72405;BMP280;60395;52.020;113.548;2023-02-08T00:43:32;93409.28;;;-14.95
72405;BMP280;60395;52.020;113.548;2023-02-08T00:46:36;93411.78;;;-14.82
72405;BMP280;60395;52.020;113.548;2023-02-08T00:49:39;93413.53;;;-14.77
72405;BMP280;60395;52.020;113.548;2023-02-08T00:52:43;93418.28;;;-14.73
72405;BMP280;60395;52.020;113.548;2023-02-08T00:55:50;93417.88;;;-14.64
72405;BMP280;60395;52.020;113.548;2023-02-08T00:58:54;93417.09;;;-14.59
72405;BMP280;60395;52.020;113.548;2023-02-08T01:01:57;93414.47;;;-14.53
72405;BMP280;60395;52.020;113.548;2023-02-08T01:05:00;93421.50;;;-14.52
72405;BMP280;60395;52.020;113.548;2023-02-08T01:08:04;93421.72;;;-14.50
72405;BMP280;60395;52.020;113.548;2023-02-08T01:11:17;93422.41;;;-14.49
72405;BMP280;60395;52.020;113.548;2023-02-08T01:14:20;93426.34;;;-14.40
72405;BMP280;60395;52.020;113.548;2023-02-08T01:17:24;93432.38;;;-14.44
72405;BMP280;60395;52.020;113.548;2023-02-08T01:20:27;93431.72;;;-14.44
72405;BMP280;60395;52.020;113.548;2023-02-08T01:23:31;93431.97;;;-14.34
72405;BMP280;60395;52.020;113.548;2023-02-08T01:26:35;93431.16;;;-14.29
72405;BMP280;60395;52.020;113.548;2023-02-08T01:29:45;93430.94;;;-14.18
72405;BMP280;60395;52.020;113.548;2023-02-08T01:32:50;93433.13;;;-14.01
72405;BMP280;60395;52.020;113.548;2023-02-08T01:35:55;93440.66;;;-13.88
72405;BMP280;60395;52.020;113.548;2023-02-08T01:38:59;93444.09;;;-13.78
72405;BMP280;60395;52.020;113.548;2023-02-08T01:42:02;93450.38;;;-13.71
72405;BMP280;60395;52.020;113.548;2023-02-08T01:48:30;93441.31;;;-13.67
72405;BMP280;60395;52.020;113.548;2023-02-08T01:51:43;93444.28;;;-13.55
72405;BMP280;60395;52.020;113.548;2023-02-08T01:54:54;93442.34;;;-13.42
72405;BMP280;60395;52.020;113.548;2023-02-08T01:58:03;93444.38;;;-13.40
72405;BMP280;60395;52.020;113.548;2023-02-08T02:01:07;93450.31;;;-13.37
72405;BMP280;60395;52.020;113.548;2023-02-08T02:04:13;93441.28;;;-13.25
72405;BMP280;60395;52.020;113.548;2023-02-08T02:07:18;93442.88;;;-13.07
72405;BMP280;60395;52.020;113.548;2023-02-08T02:10:28;93450.38;;;-12.94
72405;BMP280;60395;52.020;113.548;2023-02-08T02:13:34;93448.78;;;-12.76
72405;BMP280;60395;52.020;113.548;2023-02-08T02:16:39;93452.72;;;-12.60
72405;BMP280;60395;52.020;113.548;2023-02-08T02:20:08;93452.44;;;-12.49
72405;BMP280;60395;52.020;113.548;2023-02-08T02:33:39;93450.78;;;-12.31
72405;BMP280;60395;52.020;113.548;2023-02-08T02:36:51;93457.38;;;-12.28
72405;BMP280;60395;52.020;113.548;2023-02-08T02:40:14;93461.47;;;-12.17
72405;BMP280;60395;52.020;113.548;2023-02-08T02:43:41;93463.34;;;-12.10
72405;BMP280;60395;52.020;113.548;2023-02-08T02:46:56;93457.25;;;-12.07
72405;BMP280;60395;52.020;113.548;2023-02-08T02:50:22;93455.06;;;-12.03
72405;BMP280;60395;52.020;113.548;2023-02-08T02:53:38;93454.41;;;-11.96
72405;BMP280;60395;52.020;113.548;2023-02-08T02:56:46;93449.00;;;-11.85
72405;BMP280;60395;52.020;113.548;2023-02-08T02:59:50;93453.09;;;-11.82
72405;BMP280;60395;52.020;113.548;2023-02-08T03:02:54;93451.56;;;-11.77
72405;BMP280;60395;52.020;113.548;2023-02-08T03:12:43;93440.03;;;-11.40
72405;BMP280;60395;52.020;113.548;2023-02-08T03:22:24;93438.28;;;-11.15
72405;BMP280;60395;52.020;113.548;2023-02-08T03:29:10;93432.94;;;-10.71
72405;BMP280;60395;52.020;113.548;2023-02-08T03:35:52;93427.44;;;-10.52
72405;BMP280;60395;52.020;113.548;2023-02-08T03:39:01;93424.50;;;-10.41
72405;BMP280;60395;52.020;113.548;2023-02-08T03:42:12;93416.31;;;-10.32
72405;BMP280;60395;52.020;113.548;2023-02-08T03:45:22;93417.94;;;-10.19
72405;BMP280;60395;52.020;113.548;2023-02-08T03:48:27;93416.66;;;-10.03
72405;BMP280;60395;52.020;113.548;2023-02-08T03:51:35;93413.34;;;-9.88
72405;BMP280;60395;52.020;113.548;2023-02-08T03:54:48;93412.06;;;-9.80
72405;BMP280;60395;52.020;113.548;2023-02-08T04:01:08;93394.03;;;-9.49
72405;BMP280;60395;52.020;113.548;2023-02-08T04:04:17;93407.41;;;-9.32
72405;BMP280;60395;52.020;113.548;2023-02-08T04:07:20;93397.44;;;-9.20
72405;BMP280;60395;52.020;113.548;2023-02-08T04:10:24;93400.38;;;-9.06
72405;BMP280;60395;52.020;113.548;2023-02-08T04:13:29;93395.09;;;-8.91
72405;BMP280;60395;52.020;113.548;2023-02-08T04:16:33;93394.63;;;-8.80
72405;BMP280;60395;52.020;113.548;2023-02-08T04:19:37;93389.44;;;-8.72
72405;BMP280;60395;52.020;113.548;2023-02-08T04:22:40;93394.03;;;-8.61
72405;BMP280;60395;52.020;113.548;2023-02-08T04:25:43;93394.91;;;-8.49
72405;BMP280;60395;52.020;113.548;2023-02-08T04:28:47;93386.78;;;-8.38
72405;BMP280;60395;52.020;113.548;2023-02-08T04:31:50;93398.34;;;-8.27
72405;BMP280;60395;52.020;113.548;2023-02-08T04:34:54;93384.66;;;-8.22
72405;BMP280;60395;52.020;113.548;2023-02-08T04:37:57;93385.66;;;-8.17
72405;BMP280;60395;52.020;113.548;2023-02-08T04:41:00;93386.16;;;-8.09
72405;BMP280;60395;52.020;113.548;2023-02-08T04:44:04;93390.09;;;-7.99
72405;BMP280;60395;52.020;113.548;2023-02-08T04:47:07;93386.91;;;-7.90
72405;BMP280;60395;52.020;113.548;2023-02-08T04:50:10;93387.44;;;-7.82
72405;BMP280;60395;52.020;113.548;2023-02-08T04:53:14;93373.25;;;-7.75
72405;BMP280;60395;52.020;113.548;2023-02-08T04:56:17;93375.09;;;-7.66
72405;BMP280;60395;52.020;113.548;2023-02-08T04:59:21;93378.22;;;-7.58
72405;BMP280;60395;52.020;113.548;2023-02-08T05:02:24;93365.31;;;-7.50
72405;BMP280;60395;52.020;113.548;2023-02-08T05:05:27;93360.22;;;-7.40
72405;BMP280;60395;52.020;113.548;2023-02-08T05:08:31;93355.78;;;-7.30
72405;BMP280;60395;52.020;113.548;2023-02-08T05:11:36;93354.72;;;-7.18
72405;BMP280;60395;52.020;113.548;2023-02-08T05:14:39;93349.56;;;-7.08
72405;BMP280;60395;52.020;113.548;2023-02-08T05:17:42;93348.63;;;-7.03
72405;BMP280;60395;52.020;113.548;2023-02-08T05:20:57;93344.69;;;-6.94
72405;BMP280;60395;52.020;113.548;2023-02-08T05:24:02;93342.66;;;-6.86
72405;BMP280;60395;52.020;113.548;2023-02-08T05:27:05;93339.97;;;-6.79
72405;BMP280;60395;52.020;113.548;2023-02-08T05:30:09;93342.75;;;-6.75
72405;BMP280;60395;52.020;113.548;2023-02-08T05:33:13;93336.97;;;-6.75
72405;BMP280;60395;52.020;113.548;2023-02-08T05:36:16;93325.78;;;-6.70
72405;BMP280;60395;52.020;113.548;2023-02-08T05:39:19;93323.31;;;-6.58
72405;BMP280;60395;52.020;113.548;2023-02-08T05:42:23;93324.50;;;-6.50
72405;BMP280;60395;52.020;113.548;2023-02-08T05:45:27;93321.94;;;-6.50
72405;BMP280;60395;52.020;113.548;2023-02-08T05:48:31;93314.16;;;-6.52
72405;BMP280;60395;52.020;113.548;2023-02-08T05:51:34;93328.09;;;-6.43
72405;BMP280;60395;52.020;113.548;2023-02-08T05:54:38;93317.03;;;-6.36
72405;BMP280;60395;52.020;113.548;2023-02-08T05:57:41;93319.53;;;-6.26
72405;BMP280;60395;52.020;113.548;2023-02-08T06:00:44;93320.78;;;-6.16
72405;BMP280;60395;52.020;113.548;2023-02-08T06:03:47;93308.94;;;-6.11
72405;BMP280;60395;52.020;113.548;2023-02-08T06:06:51;93314.53;;;-6.03
72405;BMP280;60395;52.020;113.548;2023-02-08T06:09:54;93317.47;;;-5.97
72405;BMP280;60395;52.020;113.548;2023-02-08T06:12:58;93318.50;;;-5.90
72405;BMP280;60395;52.020;113.548;2023-02-08T06:16:01;93307.41;;;-5.83
72405;BMP280;60395;52.020;113.548;2023-02-08T06:19:04;93303.84;;;-5.78
72405;BMP280;60395;52.020;113.548;2023-02-08T06:22:07;93303.53;;;-5.73
72405;BMP280;60395;52.020;113.548;2023-02-08T06:25:11;93297.00;;;-5.64
72405;BMP280;60395;52.020;113.548;2023-02-08T06:28:14;93294.78;;;-5.58
72405;BMP280;60395;52.020;113.548;2023-02-08T06:31:17;93298.50;;;-5.49
72405;BMP280;60395;52.020;113.548;2023-02-08T06:34:21;93293.41;;;-5.38
72405;BMP280;60395;52.020;113.548;2023-02-08T06:37:24;93292.28;;;-5.35
72405;BMP280;60395;52.020;113.548;2023-02-08T06:40:27;93290.16;;;-5.38
72405;BMP280;60395;52.020;113.548;2023-02-08T06:43:30;93280.34;;;-5.53
72405;BMP280;60395;52.020;113.548;2023-02-08T06:46:34;93279.91;;;-5.50
72405;BMP280;60395;52.020;113.548;2023-02-08T06:49:37;93280.34;;;-5.53
72405;BMP280;60395;52.020;113.548;2023-02-08T06:52:41;93274.63;;;-5.75
72405;BMP280;60395;52.020;113.548;2023-02-08T06:55:48;93277.81;;;-5.86
72405;BMP280;60395;52.020;113.548;2023-02-08T06:58:51;93264.22;;;-5.89
72405;BMP280;60395;52.020;113.548;2023-02-08T07:01:54;93267.59;;;-5.86
72405;BMP280;60395;52.020;113.548;2023-02-08T07:04:58;93264.78;;;-5.90
72405;BMP280;60395;52.020;113.548;2023-02-08T07:08:02;93261.31;;;-5.95
72405;BMP280;60395;52.020;113.548;2023-02-08T07:11:09;93256.69;;;-5.87
72405;BMP280;60395;52.020;113.548;2023-02-08T07:14:13;93256.53;;;-5.89
72405;BMP280;60395;52.020;113.548;2023-02-08T07:17:17;93249.31;;;-5.92
72405;BMP280;60395;52.020;113.548;2023-02-08T07:20:20;93249.53;;;-6.00
72405;BMP280;60395;52.020;113.548;2023-02-08T07:23:23;93254.25;;;-6.06
72405;BMP280;60395;52.020;113.548;2023-02-08T07:26:27;93248.38;;;-6.09
72405;BMP280;60395;52.020;113.548;2023-02-08T07:29:31;93247.88;;;-6.17
72405;BMP280;60395;52.020;113.548;2023-02-08T07:32:35;93248.75;;;-6.24
72405;BMP280;60395;52.020;113.548;2023-02-08T07:35:38;93251.88;;;-6.25
72405;BMP280;60395;52.020;113.548;2023-02-08T07:38:42;93247.53;;;-6.23
72405;BMP280;60395;52.020;113.548;2023-02-08T07:41:45;93249.47;;;-6.12
72405;BMP280;60395;52.020;113.548;2023-02-08T07:44:49;93252.94;;;-6.07
72405;BMP280;60395;52.020;113.548;2023-02-08T07:47:52;93242.81;;;-6.05
72405;BMP280;60395;52.020;113.548;2023-02-08T07:50:55;93247.25;;;-6.06
72405;BMP280;60395;52.020;113.548;2023-02-08T07:53:59;93234.47;;;-6.06
72405;BMP280;60395;52.020;113.548;2023-02-08T07:57:02;93242.59;;;-6.09
72405;BMP280;60395;52.020;113.548;2023-02-08T08:00:06;93239.00;;;-6.16
72405;BMP280;60395;52.020;113.548;2023-02-08T08:03:12;93231.97;;;-6.27
72405;BMP280;60395;52.020;113.548;2023-02-08T08:06:17;93236.47;;;-6.37
72405;BMP280;60395;52.020;113.548;2023-02-08T08:09:21;93227.25;;;-6.42
72405;BMP280;60395;52.020;113.548;2023-02-08T08:12:26;93225.50;;;-6.49
72405;BMP280;60395;52.020;113.548;2023-02-08T08:15:29;93225.41;;;-6.51
72405;BMP280;60395;52.020;113.548;2023-02-08T08:18:33;93219.00;;;-6.62
72405;BMP280;60395;52.020;113.548;2023-02-08T08:21:36;93216.50;;;-6.72
72405;BMP280;60395;52.020;113.548;2023-02-08T08:24:39;93219.38;;;-6.77
72405;BMP280;60395;52.020;113.548;2023-02-08T08:27:43;93210.13;;;-6.82
72405;BMP280;60395;52.020;113.548;2023-02-08T08:30:47;93203.56;;;-6.85
72405;BMP280;60395;52.020;113.548;2023-02-08T08:33:50;93207.19;;;-6.88
72405;BMP280;60395;52.020;113.548;2023-02-08T08:36:54;93192.84;;;-6.93
72405;BMP280;60395;52.020;113.548;2023-02-08T08:39:57;93192.38;;;-7.01
72405;BMP280;60395;52.020;113.548;2023-02-08T08:43:00;93194.53;;;-7.07
72405;BMP280;60395;52.020;113.548;2023-02-08T08:46:05;93183.94;;;-7.14
72405;BMP280;60395;52.020;113.548;2023-02-08T08:49:09;93202.34;;;-7.15
72405;BMP280;60395;52.020;113.548;2023-02-08T08:52:12;93204.50;;;-7.21
72405;BMP280;60395;52.020;113.548;2023-02-08T08:55:15;93212.59;;;-7.25
72405;BMP280;60395;52.020;113.548;2023-02-08T08:58:19;93209.81;;;-7.29
72405;BMP280;60395;52.020;113.548;2023-02-08T09:01:22;93217.19;;;-7.33
72405;BMP280;60395;52.020;113.548;2023-02-08T09:04:26;93210.09;;;-7.34
72405;BMP280;60395;52.020;113.548;2023-02-08T09:07:29;93210.25;;;-7.42
72405;BMP280;60395;52.020;113.548;2023-02-08T09:10:32;93214.03;;;-7.53
72405;BMP280;60395;52.020;113.548;2023-02-08T09:13:36;93206.41;;;-7.62
72405;BMP280;60395;52.020;113.548;2023-02-08T09:16:40;93210.84;;;-7.72
72405;BMP280;60395;52.020;113.548;2023-02-08T09:19:44;93217.31;;;-7.81
72405;BMP280;60395;52.020;113.548;2023-02-08T09:22:49;93210.06;;;-7.94
72405;BMP280;60395;52.020;113.548;2023-02-08T09:25:52;93212.09;;;-8.02
72405;BMP280;60395;52.020;113.548;2023-02-08T09:28:56;93208.88;;;-8.12
72405;BMP280;60395;52.020;113.548;2023-02-08T09:31:59;93211.03;;;-8.18
72405;BMP280;60395;52.020;113.548;2023-02-08T09:35:02;93206.75;;;-8.26
72405;BMP280;60395;52.020;113.548;2023-02-08T09:38:06;93206.59;;;-8.37
72405;BMP280;60395;52.020;113.548;2023-02-08T09:48:43;93209.78;;;-8.66
72405;BMP280;60395;52.020;113.548;2023-02-08T09:51:59;93206.16;;;-8.72
72405;BMP280;60395;52.020;113.548;2023-02-08T09:55:16;93205.88;;;-8.76
72405;BMP280;60395;52.020;113.548;2023-02-08T09:58:48;93201.44;;;-8.76
72405;BMP280;60395;52.020;113.548;2023-02-08T10:05:17;93195.25;;;-8.82
72405;BMP280;60395;52.020;113.548;2023-02-08T10:08:22;93195.81;;;-8.84
72405;BMP280;60395;52.020;113.548;2023-02-08T10:29:20;93191.06;;;-9.07
72405;BMP280;60395;52.020;113.548;2023-02-08T10:32:50;93194.13;;;-9.08
72405;BMP280;60395;52.020;113.548;2023-02-08T10:35:57;93187.41;;;-9.13
72405;BMP280;60395;52.020;113.548;2023-02-08T10:39:02;93191.84;;;-9.14
72405;BMP280;60395;52.020;113.548;2023-02-08T10:42:15;93184.06;;;-9.16
72405;BMP280;60395;52.020;113.548;2023-02-08T10:45:36;93173.75;;;-9.18
72405;BMP280;60395;52.020;113.548;2023-02-08T10:52:10;93174.13;;;-9.21
72405;BMP280;60395;52.020;113.548;2023-02-08T10:55:16;93182.16;;;-9.25
72405;BMP280;60395;52.020;113.548;2023-02-08T10:58:23;93174.69;;;-9.23
72405;BMP280;60395;52.020;113.548;2023-02-08T11:01:28;93165.19;;;-9.22
72405;BMP280;60395;52.020;113.548;2023-02-08T11:04:31;93167.06;;;-9.23
72405;BMP280;60395;52.020;113.548;2023-02-08T11:07:35;93162.50;;;-9.24
72405;BMP280;60395;52.020;113.548;2023-02-08T11:10:45;93165.19;;;-9.22
72405;BMP280;60395;52.020;113.548;2023-02-08T11:14:18;93163.69;;;-9.25
72405;BMP280;60395;52.020;113.548;2023-02-08T11:17:26;93154.84;;;-9.24
72405;BMP280;60395;52.020;113.548;2023-02-08T11:20:37;93150.97;;;-9.25
72405;BMP280;60395;52.020;113.548;2023-02-08T11:23:41;93143.47;;;-9.23
72405;BMP280;60395;52.020;113.548;2023-02-08T11:26:45;93133.56;;;-9.19
72405;BMP280;60395;52.020;113.548;2023-02-08T11:33:18;93128.25;;;-9.14
72405;BMP280;60395;52.020;113.548;2023-02-08T11:36:22;93128.25;;;-9.14
72405;BMP280;60395;52.020;113.548;2023-02-08T11:39:26;93123.00;;;-9.16
72405;BMP280;60395;52.020;113.548;2023-02-08T11:42:34;93133.75;;;-9.17
72405;BMP280;60395;52.020;113.548;2023-02-08T11:45:38;93131.03;;;-9.19
72405;BMP280;60395;52.020;113.548;2023-02-08T11:48:44;93131.56;;;-9.21
72405;BMP280;60395;52.020;113.548;2023-02-08T11:51:51;93128.91;;;-9.23
72405;BMP280;60395;52.020;113.548;2023-02-08T11:58:23;93115.25;;;-9.18
72405;BMP280;60395;52.020;113.548;2023-02-08T12:01:35;93115.63;;;-9.21
72405;BMP280;60395;52.020;113.548;2023-02-08T12:04:39;93116.72;;;-9.24
72405;BMP280;60395;52.020;113.548;2023-02-08T12:07:48;93108.13;;;-9.29
72405;BMP280;60395;52.020;113.548;2023-02-08T12:21:20;93110.34;;;-9.52
72405;BMP280;60395;52.020;113.548;2023-02-08T12:28:21;93102.78;;;-9.60
72405;BMP280;60395;52.020;113.548;2023-02-08T12:31:31;93094.91;;;-9.64
72405;BMP280;60395;52.020;113.548;2023-02-08T12:38:05;93097.94;;;-9.66
72405;BMP280;60395;52.020;113.548;2023-02-08T12:41:35;93094.09;;;-9.67
72405;BMP280;60395;52.020;113.548;2023-02-08T12:44:52;93090.47;;;-9.73
72405;BMP280;60395;52.020;113.548;2023-02-08T12:48:06;93086.66;;;-9.82
72405;BMP280;60395;52.020;113.548;2023-02-08T12:51:35;93084.28;;;-9.80
72405;BMP280;60395;52.020;113.548;2023-02-08T12:54:47;93078.22;;;-9.84
72405;BMP280;60395;52.020;113.548;2023-02-08T12:57:57;93079.06;;;-9.82
72405;BMP280;60395;52.020;113.548;2023-02-08T13:01:14;93078.38;;;-9.82
72405;BMP280;60395;52.020;113.548;2023-02-08T13:04:28;93077.84;;;-9.81
72405;BMP280;60395;52.020;113.548;2023-02-08T13:07:37;93080.09;;;-9.85
72405;BMP280;60395;52.020;113.548;2023-02-08T13:10:43;93071.66;;;-9.87
72405;BMP280;60395;52.020;113.548;2023-02-08T13:13:56;93074.56;;;-9.91
72405;BMP280;60395;52.020;113.548;2023-02-08T13:17:16;93074.31;;;-9.95
72405;BMP280;60395;52.020;113.548;2023-02-08T13:23:46;93066.28;;;-9.91
72405;BMP280;60395;52.020;113.548;2023-02-08T13:26:57;93067.13;;;-9.89
72405;BMP280;60395;52.020;113.548;2023-02-08T13:30:00;93065.78;;;-9.90
72405;BMP280;60395;52.020;113.548;2023-02-08T13:36:38;93055.72;;;-9.98
72405;BMP280;60395;52.020;113.548;2023-02-08T13:39:43;93057.59;;;-9.98
72405;BMP280;60395;52.020;113.548;2023-02-08T13:42:52;93055.50;;;-10.09
72405;BMP280;60395;52.020;113.548;2023-02-08T13:45:59;93049.59;;;-10.21
72405;BMP280;60395;52.020;113.548;2023-02-08T13:49:03;93045.78;;;-10.30
72405;BMP280;60395;52.020;113.548;2023-02-08T13:52:10;93034.47;;;-10.46
72405;BMP280;60395;52.020;113.548;2023-02-08T14:02:19;93051.19;;;-10.43
72405;BMP280;60395;52.020;113.548;2023-02-08T14:12:22;93038.00;;;-10.76
72405;BMP280;60395;52.020;113.548;2023-02-08T14:15:33;93029.31;;;-10.83
72405;BMP280;60395;52.020;113.548;2023-02-08T14:18:36;93030.31;;;-10.86
72405;BMP280;60395;52.020;113.548;2023-02-08T14:21:43;93036.47;;;-10.89
72405;BMP280;60395;52.020;113.548;2023-02-08T14:25:06;93042.28;;;-10.96
72405;BMP280;60395;52.020;113.548;2023-02-08T14:31:37;93028.75;;;-11.33
72405;BMP280;60395;52.020;113.548;2023-02-08T14:34:42;93023.84;;;-11.56
72405;BMP280;60395;52.020;113.548;2023-02-08T14:37:49;93027.94;;;-11.60
72405;BMP280;60395;52.020;113.548;2023-02-08T14:41:00;93017.66;;;-11.62
72405;BMP280;60395;52.020;113.548;2023-02-08T14:48:56;92998.19;;;-11.60
72405;BMP280;60395;52.020;113.548;2023-02-08T14:52:24;93002.91;;;-11.56
72405;BMP280;60395;52.020;113.548;2023-02-08T15:04:22;92990.13;;;-11.41
72405;BMP280;60395;52.020;113.548;2023-02-08T15:08:04;92980.66;;;-11.41
72405;BMP280;60395;52.020;113.548;2023-02-08T15:16:13;92977.72;;;-11.37
72405;BMP280;60395;52.020;113.548;2023-02-08T15:27:26;92969.84;;;-11.41
72405;BMP280;60395;52.020;113.548;2023-02-08T15:35:42;92941.94;;;-11.58
72405;BMP280;60395;52.020;113.548;2023-02-08T15:42:49;92939.84;;;-11.69
72405;BMP280;60395;52.020;113.548;2023-02-08T15:46:14;92941.41;;;-11.74
72405;BMP280;60395;52.020;113.548;2023-02-08T15:49:36;92918.28;;;-11.95
72405;BMP280;60395;52.020;113.548;2023-02-08T15:53:21;92938.31;;;-11.90
72405;BMP280;60395;52.020;113.548;2023-02-08T15:56:57;92920.34;;;-12.01
72405;BMP280;60395;52.020;113.548;2023-02-08T16:00:17;92932.97;;;-11.94
72405;BMP280;60395;52.020;113.548;2023-02-08T16:03:57;92915.97;;;-12.01
72405;BMP280;60395;52.020;113.548;2023-02-08T16:07:45;92912.44;;;-12.05
72405;BMP280;60395;52.020;113.548;2023-02-08T16:11:11;92898.50;;;-12.14
72405;BMP280;60395;52.020;113.548;2023-02-08T16:18:28;92902.72;;;-12.09
72405;BMP280;60395;52.020;113.548;2023-02-08T16:21:55;92895.84;;;-12.16
72405;BMP280;60395;52.020;113.548;2023-02-08T16:25:43;92905.72;;;-12.11
72405;BMP280;60395;52.020;113.548;2023-02-08T16:29:03;92897.97;;;-12.13
72405;BMP280;60395;52.020;113.548;2023-02-08T16:32:55;92908.09;;;-12.13
72405;BMP280;60395;52.020;113.548;2023-02-08T16:36:32;92908.78;;;-12.12
72405;BMP280;60395;52.020;113.548;2023-02-08T16:40:03;92907.97;;;-12.15
72405;BMP280;60395;52.020;113.548;2023-02-08T16:43:31;92894.38;;;-12.27
72405;BMP280;60395;52.020;113.548;2023-02-08T16:46:47;92891.38;;;-12.33
72405;BMP280;60395;52.020;113.548;2023-02-08T16:50:11;92889.94;;;-12.44
72405;BMP280;60395;52.020;113.548;2023-02-08T16:53:46;92895.47;;;-12.37
72405;BMP280;60395;52.020;113.548;2023-02-08T16:57:41;92890.22;;;-12.39
72405;BMP280;60395;52.020;113.548;2023-02-08T17:01:18;92880.50;;;-12.43
72405;BMP280;60395;52.020;113.548;2023-02-08T17:05:37;92885.00;;;-12.42
72405;BMP280;60395;52.020;113.548;2023-02-08T17:09:18;92873.56;;;-12.43
72405;BMP280;60395;52.020;113.548;2023-02-08T17:12:54;92875.47;;;-12.51
72405;BMP280;60395;52.020;113.548;2023-02-08T17:16:25;92876.44;;;-12.46
72405;BMP280;60395;52.020;113.548;2023-02-08T17:19:43;92872.63;;;-12.55
72405;BMP280;60395;52.020;113.548;2023-02-08T17:23:14;92872.66;;;-12.62
72405;BMP280;60395;52.020;113.548;2023-02-08T17:26:42;92863.59;;;-12.65
72405;BMP280;60395;52.020;113.548;2023-02-08T17:29:59;92851.69;;;-12.80
72405;BMP280;60395;52.020;113.548;2023-02-08T17:33:28;92866.31;;;-12.71
72405;BMP280;60395;52.020;113.548;2023-02-08T17:36:57;92850.03;;;-12.85
72405;BMP280;60395;52.020;113.548;2023-02-08T17:40:10;92845.53;;;-12.94
72405;BMP280;60395;52.020;113.548;2023-02-08T17:43:23;92843.81;;;-12.84
72405;BMP280;60395;52.020;113.548;2023-02-08T17:47:02;92843.19;;;-13.00
72405;BMP280;60395;52.020;113.548;2023-02-08T17:50:56;92850.59;;;-12.94
72405;BMP280;60395;52.020;113.548;2023-02-08T17:54:06;92848.25;;;-13.00
72405;BMP280;60395;52.020;113.548;2023-02-08T17:57:59;92851.16;;;-13.03
72405;BMP280;60395;52.020;113.548;2023-02-08T18:01:19;92846.59;;;-13.05
72405;BMP280;60395;52.020;113.548;2023-02-08T18:04:34;92843.22;;;-13.07
72405;BMP280;60395;52.020;113.548;2023-02-08T18:07:48;92847.78;;;-13.06
72405;BMP280;60395;52.020;113.548;2023-02-08T18:11:18;92833.00;;;-13.17
72405;BMP280;60395;52.020;113.548;2023-02-08T18:14:29;92830.34;;;-13.27
72405;BMP280;60395;52.020;113.548;2023-02-08T18:17:50;92827.53;;;-13.31
72405;BMP280;60395;52.020;113.548;2023-02-08T18:21:32;92836.91;;;-13.24
72405;BMP280;60395;52.020;113.548;2023-02-08T18:24:46;92832.38;;;-13.25
72405;BMP280;60395;52.020;113.548;2023-02-08T18:28:17;92823.16;;;-13.38
72405;BMP280;60395;52.020;113.548;2023-02-08T18:31:53;92836.28;;;-13.32
72405;BMP280;60395;52.020;113.548;2023-02-08T18:35:01;92826.50;;;-13.35
72405;BMP280;60395;52.020;113.548;2023-02-08T18:38:17;92834.22;;;-13.33
72405;BMP280;60395;52.020;113.548;2023-02-08T18:41:44;92822.88;;;-13.57
72405;BMP280;60395;52.020;113.548;2023-02-08T18:45:10;92821.59;;;-13.81
72405;BMP280;60395;52.020;113.548;2023-02-08T18:53:42;92813.56;;;-14.56
72405;BMP280;60395;52.020;113.548;2023-02-08T19:20:43;92775.06;;;-15.82
72405;BMP280;60395;52.020;113.548;2023-02-08T19:25:03;92760.84;;;-15.71
72405;BMP280;60395;52.020;113.548;2023-02-08T19:29:15;92765.56;;;-15.68
72405;BMP280;60395;52.020;113.548;2023-02-08T19:34:20;92753.66;;;-15.75
72405;BMP280;60395;52.020;113.548;2023-02-08T19:38:10;92744.25;;;-15.75
72405;BMP280;60395;52.020;113.548;2023-02-08T19:46:12;92738.25;;;-15.64
72405;BMP280;60395;52.020;113.548;2023-02-08T19:50:15;92743.28;;;-15.64
72405;BMP280;60395;52.020;113.548;2023-02-08T20:01:44;92737.88;;;-16.04
72405;BMP280;60395;52.020;113.548;2023-02-08T20:15:55;92724.06;;;-16.47
72405;BMP280;60395;52.020;113.548;2023-02-08T20:24:31;92710.31;;;-16.74
72405;BMP280;60395;52.020;113.548;2023-02-08T20:42:49;92692.78;;;-16.66
72405;BMP280;60395;52.020;113.548;2023-02-08T20:46:28;92686.78;;;-16.84
72405;BMP280;60395;52.020;113.548;2023-02-08T20:54:34;92672.63;;;-16.74
72405;BMP280;60395;52.020;113.548;2023-02-08T21:02:42;92660.47;;;-16.62
72405;BMP280;60395;52.020;113.548;2023-02-08T21:06:22;92666.72;;;-16.56
72405;BMP280;60395;52.020;113.548;2023-02-08T21:19:36;92662.19;;;-16.78
72405;BMP280;60395;52.020;113.548;2023-02-08T21:27:00;92651.38;;;-16.94
72405;BMP280;60395;52.020;113.548;2023-02-08T21:35:06;92664.44;;;-17.16
72405;BMP280;60395;52.020;113.548;2023-02-08T21:39:06;92659.59;;;-17.35
72405;BMP280;60395;52.020;113.548;2023-02-08T21:47:25;92641.59;;;-17.81
72405;BMP280;60395;52.020;113.548;2023-02-08T21:51:14;92655.19;;;-17.89
72405;BMP280;60395;52.020;113.548;2023-02-08T21:55:16;92633.53;;;-18.13
72405;BMP280;60395;52.020;113.548;2023-02-08T22:03:53;92632.06;;;-18.22
72405;BMP280;60395;52.020;113.548;2023-02-08T22:12:57;92643.53;;;-18.66
72405;BMP280;60395;52.020;113.548;2023-02-08T22:16:48;92633.03;;;-18.65
72405;BMP280;60395;52.020;113.548;2023-02-08T22:20:08;92615.41;;;-18.72
72405;BMP280;60395;52.020;113.548;2023-02-08T22:23:45;92626.69;;;-18.66
72405;BMP280;60395;52.020;113.548;2023-02-08T22:27:00;92624.19;;;-18.79